createdAt,value
2022-11-03T00:01:50.094Z,96155.75
2022-11-03T00:07:02.800Z,96146.91
2022-11-03T00:12:05.990Z,96144.50
2022-11-03T00:17:08.684Z,96132.34
2022-11-03T00:22:11.330Z,96116.06
2022-11-03T00:27:14.017Z,96113.22
2022-11-03T00:32:17.820Z,96101.56
2022-11-03T00:37:20.512Z,96104.16
2022-11-03T00:42:23.190Z,96102.69
2022-11-03T00:47:25.865Z,96094.59
2022-11-03T00:52:28.470Z,96089.00
2022-11-03T00:57:31.129Z,96081.47
2022-11-03T01:02:34.571Z,96081.47
2022-11-03T01:07:37.306Z,96078.72
2022-11-03T01:12:39.995Z,96063.50
2022-11-03T01:17:42.889Z,96065.59
2022-11-03T01:22:45.674Z,96056.19
2022-11-03T01:27:48.368Z,96064.31
2022-11-03T01:32:51.057Z,96061.16
2022-11-03T01:37:53.949Z,96063.91
2022-11-03T01:42:56.709Z,96066.94
2022-11-03T01:47:59.785Z,96060.88
2022-11-03T01:53:02.479Z,96042.59
2022-11-03T02:09:36.755Z,96033.34
2022-11-03T02:14:39.833Z,96020.88
2022-11-03T02:19:43.032Z,96011.47
2022-11-03T02:24:51.305Z,96007.59
2022-11-03T02:29:57.570Z,96006.06
2022-11-03T02:35:01.466Z,96008.22
2022-11-03T02:40:04.520Z,96001.66
2022-11-03T02:45:11.987Z,95993.81
2022-11-03T02:50:20.174Z,95987.91
2022-11-03T02:55:23.578Z,95978.19
2022-11-03T03:00:33.411Z,95967.50
2022-11-03T03:05:36.683Z,95953.22
2022-11-03T03:10:40.064Z,95950.44
2022-11-03T03:15:43.257Z,95947.03
2022-11-03T03:20:46.520Z,95938.47
2022-11-03T03:25:50.411Z,95932.44
2022-11-03T03:30:53.717Z,95934.22
2022-11-03T03:35:56.799Z,95927.72
2022-11-03T03:40:59.842Z,95934.38
2022-11-03T03:46:02.933Z,95936.56
2022-11-03T03:51:06.535Z,95941.81
2022-11-03T03:56:09.610Z,95932.34
2022-11-03T04:01:12.832Z,95927.06
2022-11-03T04:06:22.780Z,95920.13
2022-11-03T04:11:43.679Z,95915.03
2022-11-03T04:17:04.190Z,95904.63
2022-11-03T04:22:19.281Z,95910.44
2022-11-03T04:27:22.482Z,95909.56
2022-11-03T04:32:25.696Z,95896.00
2022-11-03T04:37:29.377Z,95889.72
2022-11-03T04:42:32.616Z,95881.81
2022-11-03T04:47:35.933Z,95873.56
2022-11-03T04:52:39.134Z,95868.84
2022-11-03T04:57:42.320Z,95870.38
2022-11-03T05:02:46.602Z,95857.53
2022-11-03T06:11:17.244Z,95793.41
2022-11-03T06:16:20.348Z,95785.50
2022-11-03T06:21:23.452Z,95789.09
2022-11-03T06:26:26.950Z,95793.00
2022-11-03T06:31:30.536Z,95795.00
2022-11-03T06:36:33.679Z,95786.13
2022-11-03T06:41:36.856Z,95775.00
2022-11-03T06:46:40.315Z,95778.28
2022-11-03T06:51:44.293Z,95772.59
2022-11-03T06:56:47.654Z,95776.25
2022-11-03T07:01:50.928Z,95787.44
2022-11-03T07:06:54.176Z,95766.81
2022-11-03T07:11:57.258Z,95759.59
2022-11-03T07:17:00.873Z,95750.28
2022-11-03T07:22:04.052Z,95754.19
2022-11-03T07:27:17.235Z,95742.59
2022-11-03T07:32:20.824Z,95753.00
2022-11-03T07:37:23.986Z,95744.63
2022-11-03T07:42:27.095Z,95737.97
2022-11-03T07:47:30.232Z,95748.81
2022-11-03T07:52:33.410Z,95736.00
2022-11-03T07:57:36.569Z,95732.47
2022-11-03T08:02:39.880Z,95703.28
2022-11-03T08:07:43.126Z,95698.03
2022-11-03T08:12:46.385Z,95692.03
2022-11-03T08:17:55.052Z,95685.63
2022-11-03T08:23:20.126Z,95672.97
2022-11-03T08:28:26.560Z,95670.78
2022-11-03T08:38:37.663Z,95654.22
2022-11-03T08:43:40.792Z,95644.66
2022-11-03T08:48:43.877Z,95636.94
2022-11-03T08:53:50.566Z,95625.91
2022-11-03T08:58:53.764Z,95616.75
2022-11-03T09:03:56.907Z,95607.19
2022-11-03T09:14:23.688Z,95602.09
2022-11-03T09:19:27.252Z,95584.94
2022-11-03T09:24:30.637Z,95561.38
2022-11-03T09:29:58.359Z,95555.47
2022-11-03T09:34:57.749Z,95538.78
2022-11-03T09:40:00.961Z,95554.91
2022-11-03T09:45:05.112Z,95541.38
2022-11-03T09:50:08.806Z,95547.22
2022-11-03T09:55:12.635Z,95540.16
2022-11-03T10:00:15.826Z,95537.88
2022-11-03T10:05:18.978Z,95528.94
2022-11-03T10:10:22.118Z,95514.53
2022-11-03T10:15:25.723Z,95493.50
2022-11-03T10:20:28.957Z,95483.38
2022-11-03T10:25:32.124Z,95486.47
2022-11-03T10:30:45.297Z,95473.16
2022-11-03T10:35:58.427Z,95475.25
2022-11-03T10:41:01.614Z,95462.50
2022-11-03T10:46:06.230Z,95462.06
2022-11-03T10:51:11.720Z,95450.06
2022-11-03T10:56:14.964Z,95443.59
2022-11-03T11:01:18.225Z,95435.38
2022-11-03T11:06:22.277Z,95431.72
2022-11-03T11:11:25.767Z,95429.97
2022-11-03T11:16:28.911Z,95428.94
2022-11-03T11:21:34.805Z,95427.34
2022-11-03T11:26:39.795Z,95438.97
2022-11-03T11:31:42.966Z,95440.97
2022-11-03T11:36:47.296Z,95435.13
2022-11-03T11:41:50.480Z,95417.31
2022-11-03T11:46:56.495Z,95406.50
2022-11-03T11:51:59.680Z,95408.50
2022-11-03T11:57:02.872Z,95390.00
2022-11-03T12:02:07.204Z,95387.38
2022-11-03T12:07:10.440Z,95374.84
2022-11-03T12:12:13.626Z,95379.53
2022-11-03T12:17:16.931Z,95388.28
2022-11-03T12:22:20.019Z,95371.31
2022-11-03T12:27:23.126Z,95378.38
2022-11-03T12:32:33.404Z,95356.41
2022-11-03T12:37:38.190Z,95342.03
2022-11-03T12:42:41.445Z,95342.09
2022-11-03T12:47:44.583Z,95327.44
2022-11-03T12:52:47.692Z,95338.28
2022-11-03T12:57:50.793Z,95331.56
2022-11-03T13:02:54.465Z,95309.50
2022-11-03T13:07:57.595Z,95305.22
2022-11-03T13:13:00.682Z,95289.72
2022-11-03T13:18:14.028Z,95285.41
2022-11-03T13:23:20.291Z,95282.63
2022-11-03T13:28:26.608Z,95270.31
2022-11-03T13:33:29.665Z,95264.72
2022-11-03T13:38:32.760Z,95262.13
2022-11-03T13:43:35.873Z,95260.00
2022-11-03T13:59:26.768Z,95241.25
2022-11-03T14:04:45.974Z,95243.63
2022-11-03T14:09:49.253Z,95232.13
2022-11-03T14:14:52.396Z,95222.91
2022-11-03T14:20:00.834Z,95238.09
2022-11-03T14:25:07.636Z,95235.31
2022-11-03T14:30:11.424Z,95239.00
2022-11-03T14:35:14.978Z,95215.16
2022-11-03T14:40:32.445Z,95198.31
2022-11-03T14:45:41.536Z,95202.72
2022-11-03T14:50:45.926Z,95194.75
2022-11-03T14:55:49.038Z,95210.22
2022-11-03T15:00:52.116Z,95209.94
2022-11-03T15:05:55.782Z,95199.34
2022-11-03T15:10:59.322Z,95186.25
2022-11-03T15:16:02.974Z,95159.31
2022-11-03T15:21:06.524Z,95158.31
2022-11-03T15:26:09.652Z,95153.75
2022-11-03T15:31:12.765Z,95154.34
2022-11-03T15:36:16.062Z,95138.31
2022-11-03T15:41:19.885Z,95116.16
2022-11-03T15:46:23.068Z,95127.72
2022-11-03T15:51:26.144Z,95112.50
2022-11-03T15:56:29.573Z,95105.91
2022-11-03T16:01:32.720Z,95102.81
2022-11-03T16:11:59.232Z,95065.84
2022-11-03T16:17:02.403Z,95076.25
2022-11-03T16:22:05.542Z,95074.88
2022-11-03T16:27:09.651Z,95059.56
2022-11-03T16:32:13.046Z,95047.31
2022-11-03T16:37:16.579Z,95032.56
2022-11-03T16:42:19.807Z,95019.72
2022-11-03T16:47:22.961Z,95020.81
2022-11-03T16:52:26.643Z,95010.88
2022-11-03T16:57:29.706Z,95004.22
2022-11-03T17:02:32.913Z,94999.94
2022-11-03T17:07:36.562Z,94977.13
2022-11-03T17:12:39.754Z,94962.66
2022-11-03T17:17:42.847Z,94952.44
2022-11-03T17:22:47.530Z,94939.28
2022-11-03T17:27:50.641Z,94924.47
2022-11-03T17:32:54.158Z,94911.81
2022-11-03T17:37:57.380Z,94900.22
2022-11-03T17:43:00.527Z,94883.41
2022-11-03T17:48:03.605Z,94885.25
2022-11-03T17:53:06.909Z,94876.66
2022-11-03T17:58:10.235Z,94859.50
2022-11-03T18:03:14.891Z,94843.00
2022-11-03T18:08:23.800Z,94833.31
2022-11-03T18:13:30.095Z,94823.88
2022-11-03T18:18:37.591Z,94794.38
2022-11-03T18:23:40.691Z,94784.47
2022-11-03T18:28:43.751Z,94762.66
2022-11-03T18:33:48.347Z,94819.09
2022-11-03T18:38:51.480Z,94811.50
2022-11-03T18:43:54.550Z,94812.53
2022-11-03T18:48:57.632Z,94789.13
2022-11-03T18:54:00.768Z,94748.44
2022-11-03T18:59:03.883Z,94753.00
2022-11-03T19:04:10.797Z,94755.50
2022-11-03T19:09:13.993Z,94747.06
2022-11-03T19:14:17.275Z,94728.00
2022-11-03T19:19:20.440Z,94723.84
2022-11-03T19:24:23.895Z,94722.69
2022-11-03T19:29:27.559Z,94701.03
2022-11-03T19:34:31.145Z,94695.06
2022-11-03T19:39:35.031Z,94686.94
2022-11-03T19:44:41.523Z,94662.28
2022-11-03T19:49:45.127Z,94657.31
2022-11-03T19:54:48.566Z,94632.47
2022-11-03T19:59:51.765Z,94624.50
2022-11-03T20:04:57.120Z,94644.31
2022-11-03T20:10:00.376Z,94627.91
2022-11-03T20:15:03.658Z,94645.59
2022-11-03T20:20:06.863Z,94610.13
2022-11-03T20:25:10.822Z,94602.88
2022-11-03T20:30:14.476Z,94603.44
2022-11-03T20:35:21.499Z,94594.50
2022-11-03T20:40:27.733Z,94576.81
2022-11-03T20:45:30.892Z,94554.56
2022-11-03T20:50:34.623Z,94554.72
2022-11-03T20:55:37.811Z,94540.13
2022-11-03T21:00:41.024Z,94521.13
2022-11-03T21:05:45.638Z,94522.22
2022-11-03T21:10:48.803Z,94514.19
2022-11-03T21:16:24.209Z,94514.09
2022-11-03T21:21:27.887Z,94502.34
2022-11-03T21:26:31.078Z,94487.97
2022-11-03T21:31:34.597Z,94486.38
2022-11-03T21:36:37.903Z,94468.28
2022-11-03T21:41:58.614Z,94464.88
2022-11-03T21:47:02.177Z,94455.13
2022-11-03T21:52:05.341Z,94469.56
2022-11-03T21:57:08.516Z,94479.97
2022-11-03T22:02:11.854Z,94486.34
2022-11-03T22:07:15.068Z,94477.19
2022-11-03T22:12:18.243Z,94474.03
2022-11-03T22:17:21.472Z,94473.94
2022-11-03T22:22:42.183Z,94485.63
2022-11-03T22:27:45.331Z,94476.00
2022-11-03T22:32:48.435Z,94493.09
2022-11-03T22:37:51.623Z,94504.94
2022-11-03T22:43:12.507Z,94513.88
2022-11-03T22:48:15.702Z,94509.09
2022-11-03T22:53:36.716Z,94494.78
2022-11-03T22:58:39.896Z,94502.25
2022-11-03T23:03:43.437Z,94571.75
2022-11-03T23:08:46.492Z,94584.56
2022-11-03T23:13:49.560Z,94615.81
2022-11-03T23:19:10.436Z,94623.66
2022-11-03T23:24:31.228Z,94648.91
2022-11-03T23:29:34.474Z,94650.31
2022-11-03T23:34:39.216Z,94647.84
2022-11-03T23:39:42.370Z,94661.78
2022-11-03T23:45:03.414Z,94655.97
2022-11-03T23:50:06.656Z,94662.22
2022-11-03T23:55:14.206Z,94688.78
